createdAt,value
2018-11-10T00:02:24.807Z,17.90
2018-11-10T00:04:55.145Z,16.00
2018-11-10T00:07:25.042Z,22.00
2018-11-10T00:09:54.949Z,18.27
2018-11-10T00:12:24.916Z,19.40
2018-11-10T00:14:54.799Z,18.20
2018-11-10T00:17:24.904Z,19.37
2018-11-10T00:19:54.733Z,24.70
2018-11-10T00:22:24.634Z,22.20
2018-11-10T00:24:54.570Z,28.37
2018-11-10T00:27:24.781Z,21.23
2018-11-10T00:29:54.631Z,20.17
2018-11-10T00:32:24.535Z,18.73
2018-11-10T00:34:54.481Z,23.67
2018-11-10T00:37:24.337Z,20.70
2018-11-10T00:39:54.218Z,22.90
2018-11-10T00:42:24.135Z,19.73
2018-11-10T00:44:54.331Z,21.70
2018-11-10T00:47:24.390Z,19.60
2018-11-10T00:49:54.267Z,22.27
2018-11-10T00:52:24.228Z,20.07
2018-11-10T00:54:54.429Z,19.77
2018-11-10T00:57:24.402Z,23.57
2018-11-10T00:59:54.639Z,19.60
2018-11-10T01:02:24.727Z,20.60
2018-11-10T01:04:54.915Z,24.57
2018-11-10T01:07:24.735Z,21.50
2018-11-10T01:09:54.988Z,22.60
2018-11-10T01:12:24.923Z,22.47
2018-11-10T01:14:54.885Z,21.83
2018-11-10T01:17:25.044Z,20.50
2018-11-10T01:19:55.141Z,22.40
2018-11-10T01:22:25.287Z,21.57
2018-11-10T01:24:55.250Z,20.07
2018-11-10T01:27:25.158Z,19.93
2018-11-10T01:29:55.138Z,22.10
2018-11-10T01:32:25.019Z,17.73
2018-11-10T01:34:55.254Z,21.17
2018-11-10T01:37:25.540Z,23.50
2018-11-10T01:39:55.300Z,17.90
2018-11-10T01:42:25.156Z,18.80
2018-11-10T01:44:54.996Z,18.50
2018-11-10T01:47:25.161Z,21.43
2018-11-10T01:49:55.088Z,21.37
2018-11-10T01:52:25.506Z,19.30
2018-11-10T01:54:55.639Z,21.40
2018-11-10T01:57:25.489Z,18.70
2018-11-10T01:59:55.396Z,18.63
2018-11-10T02:02:25.348Z,19.97
2018-11-10T02:04:55.311Z,19.50
2018-11-10T02:07:25.226Z,18.93
2018-11-10T02:09:55.096Z,18.10
2018-11-10T02:12:25.142Z,17.00
2018-11-10T02:14:55.287Z,15.33
2018-11-10T02:17:25.273Z,16.27
2018-11-10T02:19:55.402Z,16.83
2018-11-10T02:22:25.601Z,13.90
2018-11-10T02:24:55.844Z,13.80
2018-11-10T02:27:25.904Z,15.87
2018-11-10T02:29:56.006Z,13.87
2018-11-10T02:32:25.925Z,15.93
2018-11-10T02:34:55.769Z,14.63
2018-11-10T02:37:25.794Z,16.20
2018-11-10T02:39:55.732Z,12.20
2018-11-10T02:42:25.956Z,16.57
2018-11-10T02:44:55.728Z,12.10
2018-11-10T02:47:25.720Z,14.53
2018-11-10T02:49:55.884Z,12.77
2018-11-10T02:52:26.095Z,12.60
2018-11-10T02:54:55.973Z,11.00
2018-11-10T02:57:25.802Z,13.27
2018-11-10T02:59:56.123Z,11.20
2018-11-10T03:02:26.140Z,10.83
2018-11-10T03:04:56.205Z,10.80
2018-11-10T03:07:26.044Z,15.33
2018-11-10T03:09:55.850Z,10.47
2018-11-10T03:12:25.827Z,9.87
2018-11-10T03:14:55.745Z,9.70
2018-11-10T03:17:26.037Z,9.50
2018-11-10T03:19:55.891Z,9.03
2018-11-10T03:22:26.025Z,9.73
2018-11-10T03:24:55.808Z,7.70
2018-11-10T03:27:25.728Z,12.60
2018-11-10T03:29:55.639Z,10.27
2018-11-10T03:32:25.744Z,9.30
2018-11-10T03:34:55.895Z,10.23
2018-11-10T03:37:26.127Z,12.73
2018-11-10T03:39:56.121Z,9.77
2018-11-10T03:42:26.055Z,13.87
2018-11-10T03:44:55.959Z,9.73
2018-11-10T03:47:25.793Z,8.80
2018-11-10T03:49:55.758Z,9.47
2018-11-10T03:52:25.929Z,9.60
2018-11-10T03:54:55.953Z,7.87
2018-11-10T03:57:25.945Z,10.90
2018-11-10T03:59:55.722Z,12.30
2018-11-10T04:02:25.578Z,9.30
2018-11-10T04:04:55.439Z,9.77
2018-11-10T04:07:51.143Z,7.53
2018-11-10T04:10:21.364Z,7.00
2018-11-10T04:12:51.345Z,11.90
2018-11-10T04:15:21.510Z,6.57
2018-11-10T04:17:51.394Z,7.47
2018-11-10T04:20:21.282Z,7.90
2018-11-10T04:22:51.246Z,6.87
2018-11-10T04:25:21.096Z,5.90
2018-11-10T04:27:51.113Z,7.20
2018-11-10T04:30:21.271Z,5.97
2018-11-10T04:32:51.103Z,6.53
2018-11-10T04:35:21.434Z,7.60
2018-11-10T04:37:51.532Z,7.23
2018-11-10T04:40:21.628Z,6.10
2018-11-10T04:42:51.620Z,5.93
2018-11-10T04:45:21.359Z,7.87
2018-11-10T04:47:51.244Z,7.60
2018-11-10T04:50:21.568Z,7.40
2018-11-10T04:52:51.349Z,5.83
2018-11-10T04:55:22.103Z,7.50
2018-11-10T04:57:51.965Z,9.90
2018-11-10T05:00:22.105Z,7.67
2018-11-10T05:02:51.884Z,6.33
2018-11-10T05:05:21.782Z,7.13
2018-11-10T05:07:51.679Z,7.77
2018-11-10T05:10:21.994Z,5.60
2018-11-10T05:12:52.142Z,7.70
2018-11-10T05:15:22.464Z,6.13
2018-11-10T05:17:52.583Z,5.70
2018-11-10T05:20:22.440Z,7.83
2018-11-10T05:22:52.475Z,6.00
2018-11-10T05:25:22.490Z,7.60
2018-11-10T05:27:52.785Z,6.40
2018-11-10T05:30:22.677Z,6.30
2018-11-10T05:32:52.714Z,7.37
2018-11-10T05:35:22.588Z,6.87
2018-11-10T05:37:52.783Z,5.90
2018-11-10T05:40:22.661Z,13.37
2018-11-10T05:42:53.387Z,6.67
2018-11-10T05:45:24.074Z,7.20
2018-11-10T05:47:54.390Z,6.97
2018-11-10T05:50:24.301Z,6.30
2018-11-10T05:52:54.437Z,7.60
2018-11-10T05:55:25.118Z,6.03
2018-11-10T05:57:55.300Z,8.23
2018-11-10T06:00:25.460Z,9.67
2018-11-10T06:02:55.789Z,5.83
2018-11-10T06:05:25.651Z,7.53
2018-11-10T06:07:55.486Z,5.33
2018-11-10T06:10:25.486Z,5.10
2018-11-10T06:12:55.421Z,7.40
2018-11-10T06:15:25.460Z,6.17
2018-11-10T06:17:55.876Z,6.37
2018-11-10T06:20:26.656Z,6.03
2018-11-10T06:22:57.494Z,8.53
2018-11-10T06:25:28.733Z,7.10
2018-11-10T06:27:59.485Z,6.70
2018-11-10T06:30:29.861Z,10.63
2018-11-10T06:32:59.788Z,9.30
2018-11-10T06:35:29.714Z,9.27
2018-11-10T06:37:59.849Z,7.60
2018-11-10T06:40:33.583Z,8.33
2018-11-10T06:43:03.750Z,7.20
2018-11-10T06:45:33.995Z,7.70
2018-11-10T06:48:04.203Z,11.40
2018-11-10T06:50:33.975Z,7.90
2018-11-10T06:53:04.313Z,9.77
2018-11-10T06:55:34.591Z,8.40
2018-11-10T06:58:04.660Z,11.03
2018-11-10T07:00:34.544Z,10.03
2018-11-10T07:03:04.665Z,8.83
2018-11-10T07:05:34.549Z,11.60
2018-11-10T07:08:04.468Z,9.80
2018-11-10T07:10:34.688Z,8.97
2018-11-10T07:13:04.508Z,9.50
2018-11-10T07:15:34.297Z,12.00
2018-11-10T07:18:04.401Z,14.63
2018-11-10T07:20:34.152Z,12.33
2018-11-10T07:23:03.953Z,10.20
2018-11-10T07:25:35.935Z,9.53
2018-11-10T07:28:05.972Z,13.20
2018-11-10T07:30:35.856Z,13.83
2018-11-10T07:33:06.145Z,8.93
2018-11-10T07:35:35.976Z,11.53
2018-11-10T07:38:19.391Z,11.63
2018-11-10T07:40:50.331Z,12.00
2018-11-10T07:43:20.126Z,11.27
2018-11-10T07:45:50.072Z,10.67
2018-11-10T07:48:20.364Z,15.67
2018-11-10T07:50:50.632Z,11.53
2018-11-10T07:53:21.129Z,12.13
2018-11-10T07:55:51.404Z,13.30
2018-11-10T07:58:21.358Z,13.33
2018-11-10T08:00:51.338Z,12.37
2018-11-10T08:03:21.395Z,13.57
2018-11-10T08:05:51.234Z,9.70
2018-11-10T08:08:21.064Z,13.03
2018-11-10T08:10:50.938Z,10.67
2018-11-10T08:13:20.696Z,11.13
2018-11-10T08:15:51.201Z,11.60
2018-11-10T08:18:21.270Z,11.40
2018-11-10T08:20:51.096Z,8.27
2018-11-10T08:23:20.981Z,8.80
2018-11-10T08:25:50.844Z,8.73
2018-11-10T08:28:21.597Z,8.50
2018-11-10T08:30:51.539Z,10.53
2018-11-10T08:33:21.452Z,10.57
2018-11-10T08:35:51.814Z,10.23
2018-11-10T08:38:21.587Z,8.67
2018-11-10T08:40:51.374Z,8.27
2018-11-10T08:43:21.668Z,8.37
2018-11-10T08:45:51.503Z,9.20
2018-11-10T08:48:21.538Z,8.57
2018-11-10T08:50:51.376Z,8.00
2018-11-10T08:53:21.583Z,8.77
2018-11-10T08:55:51.520Z,10.20
2018-11-10T08:58:21.695Z,8.57
2018-11-10T09:00:52.219Z,7.37
2018-11-10T09:03:22.388Z,7.33
2018-11-10T09:05:55.671Z,8.10
2018-11-10T09:08:25.851Z,7.03
2018-11-10T09:10:55.905Z,7.27
2018-11-10T09:13:25.749Z,9.40
2018-11-10T09:15:55.667Z,7.70
2018-11-10T09:18:27.020Z,6.27
2018-11-10T09:20:56.862Z,6.80
2018-11-10T09:23:26.901Z,9.53
2018-11-10T09:26:25.432Z,9.23
2018-11-10T09:28:55.604Z,10.33
2018-11-10T09:31:25.737Z,9.50
2018-11-10T09:33:55.833Z,8.83
2018-11-10T09:36:25.933Z,8.17
2018-11-10T09:38:55.985Z,9.60
2018-11-10T09:41:25.947Z,7.90
2018-11-10T09:43:55.979Z,8.13
2018-11-10T09:46:49.651Z,7.57
2018-11-10T09:49:19.578Z,9.97
2018-11-10T09:51:49.518Z,7.73
2018-11-10T09:54:41.786Z,8.07
2018-11-10T10:00:34.172Z,7.40
2018-11-10T10:03:06.275Z,8.03
2018-11-10T10:05:36.324Z,8.53
2018-11-10T10:08:17.743Z,7.00
2018-11-10T10:10:48.125Z,7.10
2018-11-10T10:13:18.617Z,10.50
2018-11-10T10:15:48.505Z,8.10
2018-11-10T10:18:22.452Z,6.60
2018-11-10T10:20:52.470Z,7.00
2018-11-10T10:23:22.619Z,7.00
2018-11-10T10:25:52.391Z,7.63
2018-11-10T10:28:25.582Z,10.20
2018-11-10T10:30:55.466Z,7.40
2018-11-10T10:33:25.453Z,6.50
2018-11-10T10:35:55.332Z,11.10
2018-11-10T10:38:25.452Z,6.57
2018-11-10T10:41:22.195Z,7.57
2018-11-10T10:47:08.875Z,7.60
2018-11-10T10:49:38.896Z,6.70
2018-11-10T10:52:09.300Z,6.10
2018-11-10T10:54:39.416Z,8.20
2018-11-10T10:57:14.994Z,7.10
2018-11-10T10:59:44.572Z,7.00
2018-11-10T11:02:19.255Z,7.20
2018-11-10T11:10:49.125Z,11.87
2018-11-10T11:13:18.991Z,8.03
2018-11-10T11:15:48.972Z,8.20
2018-11-10T11:21:19.011Z,6.20
2018-11-10T11:23:48.736Z,5.47
2018-11-10T11:26:19.730Z,5.80
2018-11-10T11:28:49.744Z,6.27
2018-11-10T11:31:21.130Z,6.53
2018-11-10T11:33:51.130Z,7.40
2018-11-10T11:36:24.776Z,6.57
2018-11-10T11:38:54.631Z,7.60
2018-11-10T11:41:24.481Z,6.27
2018-11-10T11:43:54.438Z,6.50
2018-11-10T11:46:50.679Z,8.53
2018-11-10T11:49:20.564Z,9.17
2018-11-10T11:51:50.652Z,6.93
2018-11-10T11:54:20.416Z,8.90
2018-11-10T11:56:54.254Z,7.87
2018-11-10T11:59:50.520Z,6.77
2018-11-10T12:02:21.136Z,8.80
2018-11-10T12:04:51.073Z,7.00
2018-11-10T12:07:24.510Z,7.67
2018-11-10T12:09:54.343Z,9.27
2018-11-10T12:12:27.261Z,9.10
2018-11-10T12:14:57.323Z,7.53
2018-11-10T12:17:27.178Z,8.40
2018-11-10T12:19:57.043Z,7.80
2018-11-10T12:22:26.843Z,10.80
2018-11-10T12:24:56.723Z,8.17
2018-11-10T12:30:32.177Z,7.30
2018-11-10T12:33:01.978Z,8.03
2018-11-10T12:35:31.880Z,7.47
2018-11-10T12:38:01.743Z,7.93
2018-11-10T12:40:37.515Z,9.17
2018-11-10T12:46:07.627Z,7.87
2018-11-10T12:48:37.508Z,10.10
2018-11-10T12:51:08.395Z,8.33
2018-11-10T12:53:38.185Z,9.53
2018-11-10T12:56:08.452Z,8.00
2018-11-10T12:58:38.985Z,9.67
2018-11-10T13:01:08.855Z,10.10
2018-11-10T13:03:39.552Z,7.67
2018-11-10T13:06:11.308Z,8.20
2018-11-10T13:08:41.058Z,8.73
2018-11-10T13:11:10.864Z,8.70
2018-11-10T13:16:49.601Z,6.47
2018-11-10T13:19:20.245Z,8.63
2018-11-10T13:24:50.032Z,7.50
2018-11-10T13:27:19.986Z,7.40
2018-11-10T13:29:49.850Z,6.87
2018-11-10T13:32:19.696Z,6.67
2018-11-10T13:35:23.540Z,7.90
2018-11-10T13:37:53.498Z,6.03
2018-11-10T13:40:23.419Z,5.43
2018-11-10T13:42:53.260Z,7.00
2018-11-10T13:45:23.299Z,6.20
2018-11-10T13:47:53.484Z,4.93
2018-11-10T13:50:27.116Z,6.57
2018-11-10T13:52:57.441Z,6.50
2018-11-10T13:55:26.905Z,5.97
2018-11-10T13:57:56.696Z,7.20
2018-11-10T14:00:26.713Z,6.93
2018-11-10T14:02:56.758Z,6.87
2018-11-10T14:05:27.509Z,5.57
2018-11-10T14:08:01.912Z,6.37
2018-11-10T14:10:32.447Z,5.97
2018-11-10T14:13:03.092Z,5.83
2018-11-10T14:15:33.174Z,6.60
2018-11-10T14:18:03.434Z,16.63
2018-11-10T14:20:33.661Z,5.77
2018-11-10T14:23:03.675Z,5.60
2018-11-10T14:25:33.892Z,5.57
2018-11-10T14:28:04.107Z,7.80
2018-11-10T14:30:34.895Z,6.37
2018-11-10T14:33:05.230Z,5.67
2018-11-10T14:35:35.348Z,11.80
2018-11-10T14:38:07.172Z,5.90
2018-11-10T14:40:37.116Z,5.97
2018-11-10T14:43:07.031Z,6.07
2018-11-10T14:45:36.823Z,4.73
2018-11-10T14:48:06.825Z,5.63
2018-11-10T14:50:50.225Z,5.10
2018-11-10T14:53:24.425Z,6.10
2018-11-10T14:55:54.580Z,4.50
2018-11-10T14:58:24.605Z,7.60
2018-11-10T15:00:56.531Z,4.37
2018-11-10T15:03:27.216Z,5.73
2018-11-10T15:05:57.116Z,4.40
2018-11-10T15:08:26.864Z,4.57
2018-11-10T15:10:56.925Z,4.10
2018-11-10T15:13:26.742Z,4.30
2018-11-10T15:15:57.010Z,4.87
2018-11-10T15:18:26.982Z,5.40
2018-11-10T15:20:57.937Z,4.67
2018-11-10T15:23:28.286Z,4.80
2018-11-10T15:26:23.660Z,4.10
2018-11-10T15:28:53.786Z,5.20
2018-11-10T15:31:34.372Z,4.97
2018-11-10T15:37:22.397Z,6.80
2018-11-10T15:39:52.660Z,6.40
2018-11-10T15:42:23.067Z,6.10
2018-11-10T15:47:36.860Z,6.20
2018-11-10T15:50:09.584Z,5.50
2018-11-10T15:52:42.049Z,4.77
2018-11-10T15:55:16.663Z,3.53
2018-11-10T15:57:50.828Z,5.17
2018-11-10T16:00:22.029Z,4.60
2018-11-10T16:03:09.299Z,4.60
2018-11-10T16:05:39.568Z,4.55
2018-11-10T16:08:35.071Z,3.80
2018-11-10T16:11:24.224Z,4.20
2018-11-10T16:13:55.372Z,4.47
2018-11-10T16:16:25.506Z,4.00
2018-11-10T16:18:56.590Z,4.87
2018-11-10T16:21:27.210Z,4.73
2018-11-10T16:30:23.451Z,4.43
2018-11-10T16:39:13.537Z,3.60
2018-11-10T16:44:30.373Z,3.37
2018-11-10T16:47:00.468Z,3.47
2018-11-10T16:49:30.817Z,4.00
2018-11-10T16:52:00.879Z,3.43
2018-11-10T16:54:31.035Z,4.17
2018-11-10T16:57:01.058Z,3.10
2018-11-10T16:59:32.130Z,3.53
2018-11-10T17:02:02.282Z,4.50
2018-11-10T17:04:32.917Z,4.37
2018-11-10T17:07:03.049Z,3.47
2018-11-10T17:09:33.030Z,3.03
2018-11-10T17:12:02.837Z,2.50
2018-11-10T17:14:32.851Z,3.00
2018-11-10T17:17:03.596Z,3.33
2018-11-10T17:19:34.760Z,4.70
2018-11-10T17:22:06.367Z,2.47
2018-11-10T17:24:37.590Z,3.50
2018-11-10T17:27:08.524Z,3.10
2018-11-10T17:29:38.561Z,3.43
2018-11-10T17:32:09.091Z,2.73
2018-11-10T17:34:39.005Z,3.80
2018-11-10T17:37:08.817Z,2.87
2018-11-10T17:39:40.027Z,3.00
2018-11-10T17:42:09.939Z,3.30
2018-11-10T17:44:39.819Z,3.80
2018-11-10T17:47:10.667Z,2.50
2018-11-10T17:49:40.810Z,2.80
2018-11-10T17:52:10.836Z,3.50
2018-11-10T17:54:40.590Z,2.40
2018-11-10T17:57:10.638Z,2.43
2018-11-10T17:59:41.071Z,2.80
2018-11-10T18:02:11.316Z,3.13
2018-11-10T18:04:41.222Z,2.70
2018-11-10T18:07:11.144Z,2.60
2018-11-10T18:09:42.610Z,2.87
2018-11-10T18:12:13.236Z,2.80
2018-11-10T18:14:43.568Z,2.20
2018-11-10T18:17:14.008Z,2.40
2018-11-10T18:19:43.978Z,2.70
2018-11-10T18:22:13.967Z,2.57
2018-11-10T18:24:44.262Z,2.80
2018-11-10T18:27:14.273Z,2.73
2018-11-10T18:29:44.556Z,3.10
2018-11-10T18:32:14.547Z,3.23
2018-11-10T18:34:44.643Z,3.87
2018-11-10T18:37:14.897Z,3.20
2018-11-10T18:39:45.023Z,6.50
2018-11-10T18:42:15.193Z,3.10
2018-11-10T18:47:57.523Z,2.40
2018-11-10T18:50:30.696Z,3.03
2018-11-10T18:59:37.351Z,2.43
2018-11-10T19:02:15.283Z,3.13
2018-11-10T19:04:47.324Z,3.23
2018-11-10T19:07:21.633Z,3.57
2018-11-10T19:16:11.395Z,3.73
2018-11-10T19:18:47.355Z,3.13
2018-11-10T19:21:17.976Z,4.77
2018-11-10T19:23:56.137Z,3.50
2018-11-10T19:26:26.666Z,5.43
2018-11-10T19:28:56.938Z,5.30
2018-11-10T19:31:56.289Z,4.40
2018-11-10T19:34:31.618Z,3.93
2018-11-10T19:37:01.849Z,4.30
2018-11-10T19:39:32.939Z,4.20
2018-11-10T19:42:02.841Z,5.67
2018-11-10T19:44:32.994Z,4.40
2018-11-10T19:47:02.894Z,4.80
2018-11-10T19:49:33.261Z,5.60
2018-11-10T19:52:03.958Z,4.07
2018-11-10T19:54:33.875Z,4.43
2018-11-10T19:57:14.575Z,4.17
2018-11-10T19:59:50.416Z,4.30
2018-11-10T20:02:20.874Z,4.77
2018-11-10T20:04:50.882Z,5.47
2018-11-10T20:07:22.079Z,4.10
2018-11-10T20:10:14.824Z,5.40
2018-11-10T20:12:46.260Z,4.03
2018-11-10T20:15:17.172Z,49.27
2018-11-10T20:17:47.298Z,6.70
2018-11-10T20:20:18.366Z,7.40
2018-11-10T20:22:49.534Z,4.00
2018-11-10T20:25:20.072Z,4.13
2018-11-10T20:27:54.846Z,4.33
2018-11-10T20:30:29.319Z,4.10
2018-11-10T20:36:08.268Z,5.17
2018-11-10T20:38:39.360Z,4.07
2018-11-10T20:41:10.187Z,4.53
2018-11-10T20:43:42.515Z,3.10
2018-11-10T20:46:19.557Z,4.30
2018-11-10T20:48:49.930Z,3.57
2018-11-10T20:51:22.387Z,3.80
2018-11-10T20:53:54.005Z,4.23
2018-11-10T20:56:24.409Z,3.93
2018-11-10T20:58:56.596Z,4.37
2018-11-10T21:01:27.161Z,4.17
2018-11-10T21:03:59.987Z,3.00
2018-11-10T21:06:42.702Z,3.53
2018-11-10T21:09:13.704Z,3.50
2018-11-10T21:11:43.827Z,4.23
2018-11-10T21:14:30.043Z,3.03
2018-11-10T21:17:00.258Z,3.50
2018-11-10T21:19:31.807Z,4.13
2018-11-10T21:22:01.753Z,4.07
2018-11-10T21:24:33.742Z,3.37
2018-11-10T21:27:07.139Z,3.10
2018-11-10T21:29:37.070Z,3.70
2018-11-10T21:32:14.416Z,4.17
2018-11-10T21:34:44.875Z,3.57
2018-11-10T21:37:15.849Z,3.80
2018-11-10T21:39:45.731Z,4.27
2018-11-10T21:42:15.816Z,3.87
2018-11-10T21:44:45.756Z,4.10
2018-11-10T21:47:15.846Z,3.13
2018-11-10T21:49:46.124Z,4.00
2018-11-10T21:52:16.241Z,4.23
2018-11-10T21:54:46.136Z,4.57
2018-11-10T21:57:16.521Z,4.07
2018-11-10T21:59:46.582Z,4.53
2018-11-10T22:02:16.670Z,4.30
2018-11-10T22:04:46.774Z,3.83
2018-11-10T22:07:16.754Z,5.10
2018-11-10T22:09:46.888Z,4.40
2018-11-10T22:12:16.950Z,3.93
2018-11-10T22:14:47.157Z,4.17
2018-11-10T22:17:17.320Z,4.00
2018-11-10T22:19:47.378Z,4.10
2018-11-10T22:22:18.224Z,3.43
2018-11-10T22:24:48.485Z,3.90
2018-11-10T22:27:18.617Z,3.93
2018-11-10T22:29:48.473Z,3.40
2018-11-10T22:32:18.645Z,2.97
2018-11-10T22:34:48.792Z,2.70
2018-11-10T22:37:18.908Z,3.97
2018-11-10T22:39:49.927Z,2.83
2018-11-10T22:42:20.004Z,2.67
2018-11-10T22:44:50.317Z,2.70
2018-11-10T22:47:20.329Z,3.60
2018-11-10T22:49:51.204Z,2.87
2018-11-10T22:52:21.496Z,3.47
2018-11-10T22:54:51.671Z,2.37
2018-11-10T22:57:21.898Z,3.17
2018-11-10T22:59:51.976Z,2.80
2018-11-10T23:02:22.045Z,2.50
2018-11-10T23:04:53.979Z,3.10
2018-11-10T23:07:23.897Z,2.73
2018-11-10T23:09:54.945Z,2.93
2018-11-10T23:12:24.882Z,3.23
2018-11-10T23:14:55.836Z,3.30
2018-11-10T23:17:26.077Z,3.00
2018-11-10T23:19:56.258Z,3.37
2018-11-10T23:22:26.297Z,2.63
2018-11-10T23:24:56.480Z,2.27
2018-11-10T23:27:26.672Z,2.60
2018-11-10T23:29:56.720Z,2.73
2018-11-10T23:32:27.120Z,2.47
2018-11-10T23:34:58.306Z,2.10
2018-11-10T23:37:28.463Z,2.83
2018-11-10T23:39:58.479Z,3.00
2018-11-10T23:42:28.452Z,3.07
2018-11-10T23:44:58.497Z,1.90
2018-11-10T23:47:28.570Z,1.60
2018-11-10T23:49:58.667Z,2.57
2018-11-10T23:52:28.585Z,1.90
2018-11-10T23:54:58.759Z,1.73
2018-11-10T23:57:28.830Z,2.23
2018-11-10T23:59:58.984Z,2.20
